<?xml version='1.0' encoding='UTF-8'?>
<gpx version="1.1" creator="https://www.komoot.de" xmlns="http://www.topografix.com/GPX/1/1" xmlns:xsi="http://www.w3.org/2001/XMLSchema-instance" xsi:schemaLocation="http://www.topografix.com/GPX/1/1 http://www.topografix.com/GPX/1/1/gpx.xsd">
  <metadata>
    <name>Van Brunssum naar Houten vlonderpad</name>
    <author>
      <link href="https://www.komoot.de">
        <text>komoot</text>
        <type>text/html</type>
      </link>
    </author>
  </metadata>
  <wpt lat="50.935364" lon="6.008854">
    <name>Tunnel Golfbaan</name>
    <desc>Tunnel Golfbaan Brunssummeheide</desc>
    <sym>Tunnel</sym>
  </wpt>
  <wpt lat="50.930850" lon="6.006189">
    <name>Tunnel onder de Ring Parkstad</name>
    <sym>Flag, Blue</sym>
  </wpt>
  <wpt lat="50.930448" lon="6.002366">
    <name>Heide</name>
    <desc></desc>
    <sym>Flag, Blue</sym>
  </wpt>
  <wpt lat="50.929319" lon="6.001283">
    <name>Heidevelden van Brunssummerheide</name>
    <sym>Flag, Blue</sym>
  </wpt>
  <wpt lat="50.928854" lon="5.999380">
    <name>Heidelandschap van de Brunssummerheide</name>
    <sym>Flag, Blue</sym>
  </wpt>
  <wpt lat="50.929412" lon="5.996880">
    <name>Vijver van de Roode Beek en zandstrand</name>
    <sym>Flag, Blue</sym>
  </wpt>
  <wpt lat="50.936140" lon="5.993980">
    <name>Brug Roode Beeck</name>
    <sym>Bridge</sym>
  </wpt>
  <wpt lat="50.940142" lon="5.988396">
    <name>Voormalige tunnel Rode Beek</name>
    <sym>Flag, Blue</sym>
  </wpt>
  <wpt lat="50.940462" lon="5.987665">
    <name>Schutterspark</name>
    <sym>Flag, Blue</sym>
  </wpt>
  <wpt lat="50.946270" lon="5.984910">
    <name>Schutterhuske</name>
    <desc>LUNCH!</desc>
    <sym>Restaurant</sym>
  </wpt>
  <wpt lat="50.952838" lon="5.986291">
    <name>Houten vlonderpad</name>
    <sym>Flag, Blue</sym>
  </wpt>
  <wpt lat="50.946618" lon="5.989037">
    <name>Pompstationgebouwen</name>
    <sym>Flag, Blue</sym>
  </wpt>
  <wpt lat="50.945534" lon="5.988956">
    <name>Vijver in Schutterspark in Brunssum</name>
    <sym>Flag, Blue</sym>
  </wpt>
  <trk>
    <name>Van Brunssum naar Houten vlonderpad</name>
    <type>hike</type>
    <trkseg>
      <trkpt lat="50.935364" lon="6.008854">
        <ele>94.153371</ele>
        <time>2026-08-27T19:27:59.718Z</time>
      </trkpt>
      <trkpt lat="50.935328" lon="6.008813">
        <ele>94.153371</ele>
        <time>2026-08-27T19:28:04.210Z</time>
      </trkpt>
      <trkpt lat="50.935265" lon="6.008687">
        <ele>94.153371</ele>
        <time>2026-08-27T19:28:14.456Z</time>
      </trkpt>
      <trkpt lat="50.934950" lon="6.008282">
        <ele>94.153371</ele>
        <time>2026-08-27T19:28:55.680Z</time>
      </trkpt>
      <trkpt lat="50.934774" lon="6.007906">
        <ele>94.153371</ele>
        <time>2026-08-27T19:29:25.900Z</time>
      </trkpt>
      <trkpt lat="50.934760" lon="6.007657">
        <ele>94.051819</ele>
        <time>2026-08-27T19:29:42.112Z</time>
      </trkpt>
      <trkpt lat="50.934690" lon="6.007217">
        <ele>93.773868</ele>
        <time>2026-08-27T19:30:11.564Z</time>
      </trkpt>
      <trkpt lat="50.934500" lon="6.006848">
        <ele>93.482012</ele>
        <time>2026-08-27T19:30:42.529Z</time>
      </trkpt>
      <trkpt lat="50.934432" lon="6.006561">
        <ele>93.294212</ele>
        <time>2026-08-27T19:31:02.416Z</time>
      </trkpt>
      <trkpt lat="50.934460" lon="6.006466">
        <ele>93.229976</ele>
        <time>2026-08-27T19:31:09.201Z</time>
      </trkpt>
      <trkpt lat="50.934620" lon="6.006343">
        <ele>93.057184</ele>
        <time>2026-08-27T19:31:27.473Z</time>
      </trkpt>
      <trkpt lat="50.934793" lon="6.005732">
        <ele>92.646915</ele>
        <time>2026-08-27T19:32:10.564Z</time>
      </trkpt>
      <trkpt lat="50.934895" lon="6.005482">
        <ele>92.464504</ele>
        <time>2026-08-27T19:32:29.603Z</time>
      </trkpt>
      <trkpt lat="50.935086" lon="6.005263">
        <ele>92.543639</ele>
        <time>2026-08-27T19:32:53.238Z</time>
      </trkpt>
      <trkpt lat="50.935161" lon="6.005106">
        <ele>92.641963</ele>
        <time>2026-08-27T19:33:05.773Z</time>
      </trkpt>
      <trkpt lat="50.935154" lon="6.005022">
        <ele>92.684251</ele>
        <time>2026-08-27T19:33:11.231Z</time>
      </trkpt>
      <trkpt lat="50.935100" lon="6.004905">
        <ele>92.756628</ele>
        <time>2026-08-27T19:33:20.549Z</time>
      </trkpt>
      <trkpt lat="50.935004" lon="6.004790">
        <ele>92.851887</ele>
        <time>2026-08-27T19:33:32.949Z</time>
      </trkpt>
      <trkpt lat="50.934883" lon="6.004297">
        <ele>93.115937</ele>
        <time>2026-08-27T19:34:07.492Z</time>
      </trkpt>
      <trkpt lat="50.934782" lon="6.004353">
        <ele>93.200665</ele>
        <time>2026-08-27T19:34:18.640Z</time>
      </trkpt>
      <trkpt lat="50.934701" lon="6.004337">
        <ele>93.265308</ele>
        <time>2026-08-27T19:34:27.176Z</time>
      </trkpt>
      <trkpt lat="50.934307" lon="6.004039">
        <ele>93.610967</ele>
        <time>2026-08-27T19:35:13.017Z</time>
      </trkpt>
      <trkpt lat="50.934220" lon="6.004011">
        <ele>93.681269</ele>
        <time>2026-08-27T19:35:22.380Z</time>
      </trkpt>
      <trkpt lat="50.934133" lon="6.004081">
        <ele>93.758519</ele>
        <time>2026-08-27T19:35:32.657Z</time>
      </trkpt>
      <trkpt lat="50.934046" lon="6.004275">
        <ele>93.876666</ele>
        <time>2026-08-27T19:35:48.320Z</time>
      </trkpt>
      <trkpt lat="50.933948" lon="6.004373">
        <ele>93.967077</ele>
        <time>2026-08-27T19:36:00.461Z</time>
      </trkpt>
      <trkpt lat="50.933866" lon="6.004376">
        <ele>94.031094</ele>
        <time>2026-08-27T19:36:09.104Z</time>
      </trkpt>
      <trkpt lat="50.933527" lon="6.004217">
        <ele>94.306999</ele>
        <time>2026-08-27T19:36:45.894Z</time>
      </trkpt>
      <trkpt lat="50.932489" lon="6.005305">
        <ele>95.297315</ele>
        <time>2026-08-27T19:38:52.329Z</time>
      </trkpt>
      <trkpt lat="50.932391" lon="6.005535">
        <ele>95.493393</ele>
        <time>2026-08-27T19:39:10.214Z</time>
      </trkpt>
      <trkpt lat="50.932300" lon="6.005841">
        <ele>95.732356</ele>
        <time>2026-08-27T19:39:32.256Z</time>
      </trkpt>
      <trkpt lat="50.932243" lon="6.005891">
        <ele>95.805342</ele>
        <time>2026-08-27T19:39:39.013Z</time>
      </trkpt>
      <trkpt lat="50.932184" lon="6.005861">
        <ele>95.874770</ele>
        <time>2026-08-27T19:39:45.454Z</time>
      </trkpt>
      <trkpt lat="50.932043" lon="6.005642">
        <ele>96.095878</ele>
        <time>2026-08-27T19:40:06.028Z</time>
      </trkpt>
      <trkpt lat="50.931978" lon="6.005607">
        <ele>96.172797</ele>
        <time>2026-08-27T19:40:13.239Z</time>
      </trkpt>
      <trkpt lat="50.931890" lon="6.005612">
        <ele>96.271474</ele>
        <time>2026-08-27T19:40:22.511Z</time>
      </trkpt>
      <trkpt lat="50.931306" lon="6.006391">
        <ele>97.126449</ele>
        <time>2026-08-27T19:41:43.167Z</time>
      </trkpt>
      <trkpt lat="50.931091" lon="6.006735">
        <ele>97.288520</ele>
        <time>2026-08-27T19:42:14.938Z</time>
      </trkpt>
      <trkpt lat="50.931012" lon="6.006777">
        <ele>97.305283</ele>
        <time>2026-08-27T19:42:23.457Z</time>
      </trkpt>
      <trkpt lat="50.930954" lon="6.006715">
        <ele>97.319355</ele>
        <time>2026-08-27T19:42:30.748Z</time>
      </trkpt>
      <trkpt lat="50.930836" lon="6.006441">
        <ele>97.361438</ele>
        <time>2026-08-27T19:42:52.222Z</time>
      </trkpt>
      <trkpt lat="50.930813" lon="6.006333">
        <ele>97.375894</ele>
        <time>2026-08-27T19:42:59.656Z</time>
      </trkpt>
      <trkpt lat="50.930837" lon="6.006184">
        <ele>97.395396</ele>
        <time>2026-08-27T19:43:09.575Z</time>
      </trkpt>
      <trkpt lat="50.930904" lon="6.005775">
        <ele>97.448985</ele>
        <time>2026-08-27T19:43:36.684Z</time>
      </trkpt>
      <trkpt lat="50.930912" lon="6.005531">
        <ele>97.479969</ele>
        <time>2026-08-27T19:43:52.198Z</time>
      </trkpt>
      <trkpt lat="50.931077" lon="6.005355">
        <ele>97.519972</ele>
        <time>2026-08-27T19:44:12.089Z</time>
      </trkpt>
      <trkpt lat="50.931188" lon="6.005187">
        <ele>97.550837</ele>
        <time>2026-08-27T19:44:27.516Z</time>
      </trkpt>
      <trkpt lat="50.931437" lon="6.004574">
        <ele>97.272119</ele>
        <time>2026-08-27T19:45:14.470Z</time>
      </trkpt>
      <trkpt lat="50.931580" lon="6.004314">
        <ele>96.813210</ele>
        <time>2026-08-27T19:45:36.810Z</time>
      </trkpt>
      <trkpt lat="50.931082" lon="6.003399">
        <ele>95.205464</ele>
        <time>2026-08-27T19:46:56.373Z</time>
      </trkpt>
      <trkpt lat="50.931016" lon="6.003258">
        <ele>94.971894</ele>
        <time>2026-08-27T19:47:08.050Z</time>
      </trkpt>
      <trkpt lat="50.930497" lon="6.002294">
        <ele>92.985171</ele>
        <time>2026-08-27T19:48:32.588Z</time>
      </trkpt>
      <trkpt lat="50.930448" lon="6.002366">
        <ele>92.764302</ele>
        <time>2026-08-27T19:48:39.743Z</time>
      </trkpt>
      <trkpt lat="50.930104" lon="6.002871">
        <ele>91.214370</ele>
        <time>2026-08-27T19:49:30.303Z</time>
      </trkpt>
      <trkpt lat="50.929807" lon="6.003173">
        <ele>90.047737</ele>
        <time>2026-08-27T19:50:08.138Z</time>
      </trkpt>
      <trkpt lat="50.929432" lon="6.002810">
        <ele>88.594954</ele>
        <time>2026-08-27T19:50:55.033Z</time>
      </trkpt>
      <trkpt lat="50.929203" lon="6.002724">
        <ele>87.831487</ele>
        <time>2026-08-27T19:51:20.246Z</time>
      </trkpt>
      <trkpt lat="50.929225" lon="6.002396">
        <ele>87.344729</ele>
        <time>2026-08-27T19:51:42.405Z</time>
      </trkpt>
      <trkpt lat="50.929303" lon="6.001280">
        <ele>85.687769</ele>
        <time>2026-08-27T19:52:57.506Z</time>
      </trkpt>
      <trkpt lat="50.929322" lon="6.001009">
        <ele>85.285392</ele>
        <time>2026-08-27T19:53:15.397Z</time>
      </trkpt>
      <trkpt lat="50.929328" lon="6.000657">
        <ele>84.765762</ele>
        <time>2026-08-27T19:53:38.280Z</time>
      </trkpt>
      <trkpt lat="50.929199" lon="6.000233">
        <ele>84.070988</ele>
        <time>2026-08-27T19:54:08.915Z</time>
      </trkpt>
      <trkpt lat="50.928856" lon="5.999378">
        <ele>82.947596</ele>
        <time>2026-08-27T19:55:14.847Z</time>
      </trkpt>
      <trkpt lat="50.928785" lon="5.999201">
        <ele>82.744615</ele>
        <time>2026-08-27T19:55:28.508Z</time>
      </trkpt>
      <trkpt lat="50.928729" lon="5.998958">
        <ele>82.494296</ele>
        <time>2026-08-27T19:55:45.443Z</time>
      </trkpt>
      <trkpt lat="50.928635" lon="5.998469">
        <ele>81.999687</ele>
        <time>2026-08-27T19:56:18.858Z</time>
      </trkpt>
      <trkpt lat="50.928584" lon="5.997966">
        <ele>81.506789</ele>
        <time>2026-08-27T19:56:52.041Z</time>
      </trkpt>
      <trkpt lat="50.928588" lon="5.997556">
        <ele>81.110075</ele>
        <time>2026-08-27T19:57:18.640Z</time>
      </trkpt>
      <trkpt lat="50.928628" lon="5.997316">
        <ele>80.882995</ele>
        <time>2026-08-27T19:57:34.750Z</time>
      </trkpt>
      <trkpt lat="50.928797" lon="5.997177">
        <ele>80.741502</ele>
        <time>2026-08-27T19:57:54.300Z</time>
      </trkpt>
      <trkpt lat="50.928973" lon="5.997115">
        <ele>80.607496</ele>
        <time>2026-08-27T19:58:12.758Z</time>
      </trkpt>
      <trkpt lat="50.929182" lon="5.997116">
        <ele>80.452146</ele>
        <time>2026-08-27T19:58:34.135Z</time>
      </trkpt>
      <trkpt lat="50.929290" lon="5.997124">
        <ele>80.371782</ele>
        <time>2026-08-27T19:58:45.270Z</time>
      </trkpt>
      <trkpt lat="50.929444" lon="5.997052">
        <ele>80.252448</ele>
        <time>2026-08-27T19:59:01.673Z</time>
      </trkpt>
      <trkpt lat="50.929593" lon="5.996982">
        <ele>80.136943</ele>
        <time>2026-08-27T19:59:17.562Z</time>
      </trkpt>
      <trkpt lat="50.929797" lon="5.997020">
        <ele>79.984269</ele>
        <time>2026-08-27T19:59:38.396Z</time>
      </trkpt>
      <trkpt lat="50.930169" lon="5.996848">
        <ele>79.696261</ele>
        <time>2026-08-27T20:00:17.410Z</time>
      </trkpt>
      <trkpt lat="50.930319" lon="5.996832">
        <ele>79.584515</ele>
        <time>2026-08-27T20:00:32.509Z</time>
      </trkpt>
      <trkpt lat="50.930469" lon="5.996925">
        <ele>79.599727</ele>
        <time>2026-08-27T20:00:48.647Z</time>
      </trkpt>
      <trkpt lat="50.930731" lon="5.997193">
        <ele>79.702176</ele>
        <time>2026-08-27T20:01:20.485Z</time>
      </trkpt>
      <trkpt lat="50.931187" lon="5.997634">
        <ele>79.877685</ele>
        <time>2026-08-27T20:02:15.301Z</time>
      </trkpt>
      <trkpt lat="50.931244" lon="5.997760">
        <ele>79.909810</ele>
        <time>2026-08-27T20:02:25.272Z</time>
      </trkpt>
      <trkpt lat="50.931283" lon="5.997960">
        <ele>79.953174</ele>
        <time>2026-08-27T20:02:38.760Z</time>
      </trkpt>
      <trkpt lat="50.931343" lon="5.998079">
        <ele>79.984740</ele>
        <time>2026-08-27T20:02:48.600Z</time>
      </trkpt>
      <trkpt lat="50.931483" lon="5.998268">
        <ele>80.045151</ele>
        <time>2026-08-27T20:03:07.416Z</time>
      </trkpt>
      <trkpt lat="50.931634" lon="5.998402">
        <ele>80.102012</ele>
        <time>2026-08-27T20:03:25.060Z</time>
      </trkpt>
      <trkpt lat="50.932218" lon="5.998474">
        <ele>79.664352</ele>
        <time>2026-08-27T20:04:23.697Z</time>
      </trkpt>
      <trkpt lat="50.932506" lon="5.998553">
        <ele>79.343059</ele>
        <time>2026-08-27T20:04:53.474Z</time>
      </trkpt>
      <trkpt lat="50.932961" lon="5.998570">
        <ele>78.842741</ele>
        <time>2026-08-27T20:05:40.892Z</time>
      </trkpt>
      <trkpt lat="50.933241" lon="5.998519">
        <ele>78.532917</ele>
        <time>2026-08-27T20:06:10.268Z</time>
      </trkpt>
      <trkpt lat="50.933433" lon="5.998423">
        <ele>78.311622</ele>
        <time>2026-08-27T20:06:31.220Z</time>
      </trkpt>
      <trkpt lat="50.933711" lon="5.998270">
        <ele>78.040302</ele>
        <time>2026-08-27T20:07:01.580Z</time>
      </trkpt>
      <trkpt lat="50.934142" lon="5.997808">
        <ele>77.630489</ele>
        <time>2026-08-27T20:07:54.690Z</time>
      </trkpt>
      <trkpt lat="50.934530" lon="5.997150">
        <ele>77.183043</ele>
        <time>2026-08-27T20:08:52.412Z</time>
      </trkpt>
      <trkpt lat="50.934857" lon="5.996529">
        <ele>76.781219</ele>
        <time>2026-08-27T20:09:43.623Z</time>
      </trkpt>
      <trkpt lat="50.935439" lon="5.995647">
        <ele>76.604887</ele>
        <time>2026-08-27T20:11:04.266Z</time>
      </trkpt>
      <trkpt lat="50.935775" lon="5.995090">
        <ele>76.510304</ele>
        <time>2026-08-27T20:11:53.776Z</time>
      </trkpt>
      <trkpt lat="50.935978" lon="5.994860">
        <ele>76.461750</ele>
        <time>2026-08-27T20:12:19.015Z</time>
      </trkpt>
      <trkpt lat="50.936119" lon="5.994679">
        <ele>76.426448</ele>
        <time>2026-08-27T20:12:37.194Z</time>
      </trkpt>
      <trkpt lat="50.936145" lon="5.993990">
        <ele>76.538819</ele>
        <time>2026-08-27T20:13:21.655Z</time>
      </trkpt>
      <trkpt lat="50.936147" lon="5.993893">
        <ele>76.564034</ele>
        <time>2026-08-27T20:13:27.977Z</time>
      </trkpt>
      <trkpt lat="50.936154" lon="5.993763">
        <ele>76.597932</ele>
        <time>2026-08-27T20:13:36.548Z</time>
      </trkpt>
      <trkpt lat="50.936178" lon="5.993699">
        <ele>76.617281</ele>
        <time>2026-08-27T20:13:41.345Z</time>
      </trkpt>
      <trkpt lat="50.936261" lon="5.993724">
        <ele>76.652111</ele>
        <time>2026-08-27T20:13:50.173Z</time>
      </trkpt>
      <trkpt lat="50.936328" lon="5.993646">
        <ele>76.686370</ele>
        <time>2026-08-27T20:13:58.773Z</time>
      </trkpt>
      <trkpt lat="50.936349" lon="5.993592">
        <ele>76.702856</ele>
        <time>2026-08-27T20:14:02.969Z</time>
      </trkpt>
      <trkpt lat="50.936340" lon="5.993223">
        <ele>76.798797</ele>
        <time>2026-08-27T20:14:26.997Z</time>
      </trkpt>
      <trkpt lat="50.936402" lon="5.993106">
        <ele>76.838513</ele>
        <time>2026-08-27T20:14:36.870Z</time>
      </trkpt>
      <trkpt lat="50.936600" lon="5.992913">
        <ele>76.934314</ele>
        <time>2026-08-27T20:15:00.565Z</time>
      </trkpt>
      <trkpt lat="50.936634" lon="5.992806">
        <ele>76.965448</ele>
        <time>2026-08-27T20:15:08.354Z</time>
      </trkpt>
      <trkpt lat="50.936876" lon="5.992808">
        <ele>77.065219</ele>
        <time>2026-08-27T20:15:32.926Z</time>
      </trkpt>
      <trkpt lat="50.936985" lon="5.992761">
        <ele>77.111787</ele>
        <time>2026-08-27T20:15:44.291Z</time>
      </trkpt>
      <trkpt lat="50.937334" lon="5.992730">
        <ele>76.937035</ele>
        <time>2026-08-27T20:16:19.372Z</time>
      </trkpt>
      <trkpt lat="50.937984" lon="5.993052">
        <ele>76.399446</ele>
        <time>2026-08-27T20:17:29.343Z</time>
      </trkpt>
      <trkpt lat="50.938087" lon="5.993080">
        <ele>76.316945</ele>
        <time>2026-08-27T20:17:40.140Z</time>
      </trkpt>
      <trkpt lat="50.938155" lon="5.993095">
        <ele>76.262744</ele>
        <time>2026-08-27T20:17:47.270Z</time>
      </trkpt>
      <trkpt lat="50.938232" lon="5.992296">
        <ele>75.860620</ele>
        <time>2026-08-27T20:18:39.664Z</time>
      </trkpt>
      <trkpt lat="50.938328" lon="5.991707">
        <ele>75.918463</ele>
        <time>2026-08-27T20:19:18.156Z</time>
      </trkpt>
      <trkpt lat="50.938502" lon="5.991062">
        <ele>76.315972</ele>
        <time>2026-08-27T20:20:03.213Z</time>
      </trkpt>
      <trkpt lat="50.938655" lon="5.990661">
        <ele>76.581562</ele>
        <time>2026-08-27T20:20:33.642Z</time>
      </trkpt>
      <trkpt lat="50.938742" lon="5.990668">
        <ele>76.659882</ele>
        <time>2026-08-27T20:20:42.762Z</time>
      </trkpt>
      <trkpt lat="50.938857" lon="5.990563">
        <ele>76.779168</ele>
        <time>2026-08-27T20:20:56.654Z</time>
      </trkpt>
      <trkpt lat="50.938989" lon="5.990200">
        <ele>77.016614</ele>
        <time>2026-08-27T20:21:24.565Z</time>
      </trkpt>
      <trkpt lat="50.939102" lon="5.989882">
        <ele>77.223449</ele>
        <time>2026-08-27T20:21:48.986Z</time>
      </trkpt>
      <trkpt lat="50.939282" lon="5.989686">
        <ele>77.590732</ele>
        <time>2026-08-27T20:22:12.524Z</time>
      </trkpt>
      <trkpt lat="50.939381" lon="5.989461">
        <ele>78.095662</ele>
        <time>2026-08-27T20:22:31.160Z</time>
      </trkpt>
      <trkpt lat="50.939780" lon="5.989076">
        <ele>79.459172</ele>
        <time>2026-08-27T20:23:21.514Z</time>
      </trkpt>
      <trkpt lat="50.939963" lon="5.988583">
        <ele>80.511954</ele>
        <time>2026-08-27T20:24:01.007Z</time>
      </trkpt>
      <trkpt lat="50.940105" lon="5.988426">
        <ele>81.017291</ele>
        <time>2026-08-27T20:24:20.516Z</time>
      </trkpt>
      <trkpt lat="50.940124" lon="5.988378">
        <ele>81.121588</ele>
        <time>2026-08-27T20:24:24.540Z</time>
      </trkpt>
      <trkpt lat="50.940190" lon="5.988207">
        <ele>81.490547</ele>
        <time>2026-08-27T20:24:38.889Z</time>
      </trkpt>
      <trkpt lat="50.940344" lon="5.987966">
        <ele>82.122075</ele>
        <time>2026-08-27T20:25:03.508Z</time>
      </trkpt>
      <trkpt lat="50.940424" lon="5.987730">
        <ele>82.607056</ele>
        <time>2026-08-27T20:25:22.877Z</time>
      </trkpt>
      <trkpt lat="50.940462" lon="5.987665">
        <ele>82.702875</ele>
        <time>2026-08-27T20:25:29.329Z</time>
      </trkpt>
      <trkpt lat="50.940491" lon="5.987613">
        <ele>82.777918</ele>
        <time>2026-08-27T20:25:34.366Z</time>
      </trkpt>
      <trkpt lat="50.940555" lon="5.987574">
        <ele>82.895492</ele>
        <time>2026-08-27T20:25:42.217Z</time>
      </trkpt>
      <trkpt lat="50.940717" lon="5.987534">
        <ele>83.176664</ele>
        <time>2026-08-27T20:26:01.097Z</time>
      </trkpt>
      <trkpt lat="50.940794" lon="5.987556">
        <ele>83.310842</ele>
        <time>2026-08-27T20:26:10.074Z</time>
      </trkpt>
      <trkpt lat="50.940928" lon="5.987665">
        <ele>83.569081</ele>
        <time>2026-08-27T20:26:27.173Z</time>
      </trkpt>
      <trkpt lat="50.941103" lon="5.987937">
        <ele>83.989170</ele>
        <time>2026-08-27T20:26:54.733Z</time>
      </trkpt>
      <trkpt lat="50.941335" lon="5.988498">
        <ele>84.714319</ele>
        <time>2026-08-27T20:27:40.653Z</time>
      </trkpt>
      <trkpt lat="50.941447" lon="5.988629">
        <ele>84.952930</ele>
        <time>2026-08-27T20:27:55.102Z</time>
      </trkpt>
      <trkpt lat="50.941588" lon="5.988736">
        <ele>85.220968</ele>
        <time>2026-08-27T20:28:10.840Z</time>
      </trkpt>
      <trkpt lat="50.941772" lon="5.988779">
        <ele>85.539931</ele>
        <time>2026-08-27T20:28:29.954Z</time>
      </trkpt>
      <trkpt lat="50.942039" lon="5.988616">
        <ele>84.883492</ele>
        <time>2026-08-27T20:29:00.409Z</time>
      </trkpt>
      <trkpt lat="50.942150" lon="5.988590">
        <ele>84.445873</ele>
        <time>2026-08-27T20:29:12.582Z</time>
      </trkpt>
      <trkpt lat="50.942340" lon="5.988647">
        <ele>83.691699</ele>
        <time>2026-08-27T20:29:33.746Z</time>
      </trkpt>
      <trkpt lat="50.942418" lon="5.988746">
        <ele>83.302156</ele>
        <time>2026-08-27T20:29:44.760Z</time>
      </trkpt>
      <trkpt lat="50.942443" lon="5.988826">
        <ele>83.082700</ele>
        <time>2026-08-27T20:29:50.956Z</time>
      </trkpt>
      <trkpt lat="50.942467" lon="5.988872">
        <ele>82.935928</ele>
        <time>2026-08-27T20:29:55.165Z</time>
      </trkpt>
      <trkpt lat="50.942711" lon="5.989065">
        <ele>81.872616</ele>
        <time>2026-08-27T20:30:25.207Z</time>
      </trkpt>
      <trkpt lat="50.942954" lon="5.989157">
        <ele>80.898258</ele>
        <time>2026-08-27T20:30:52.855Z</time>
      </trkpt>
      <trkpt lat="50.943092" lon="5.989314">
        <ele>80.236016</ele>
        <time>2026-08-27T20:31:11.509Z</time>
      </trkpt>
      <trkpt lat="50.943296" lon="5.989331">
        <ele>79.439266</ele>
        <time>2026-08-27T20:31:33.943Z</time>
      </trkpt>
      <trkpt lat="50.943459" lon="5.989222">
        <ele>78.749395</ele>
        <time>2026-08-27T20:31:53.182Z</time>
      </trkpt>
      <trkpt lat="50.943424" lon="5.989076">
        <ele>78.593296</ele>
        <time>2026-08-27T20:32:03.839Z</time>
      </trkpt>
      <trkpt lat="50.943385" lon="5.988927">
        <ele>78.498331</ele>
        <time>2026-08-27T20:32:14.733Z</time>
      </trkpt>
      <trkpt lat="50.943943" lon="5.988768">
        <ele>77.968748</ele>
        <time>2026-08-27T20:33:13.544Z</time>
      </trkpt>
      <trkpt lat="50.944110" lon="5.988674">
        <ele>77.803227</ele>
        <time>2026-08-27T20:33:31.509Z</time>
      </trkpt>
      <trkpt lat="50.944994" lon="5.988151">
        <ele>77.060209</ele>
        <time>2026-08-27T20:35:07.426Z</time>
      </trkpt>
      <trkpt lat="50.945443" lon="5.987133">
        <ele>77.936176</ele>
        <time>2026-08-27T20:36:30.021Z</time>
      </trkpt>
      <trkpt lat="50.945842" lon="5.986226">
        <ele>78.715956</ele>
        <time>2026-08-27T20:37:43.175Z</time>
      </trkpt>
      <trkpt lat="50.946004" lon="5.985775">
        <ele>79.006076</ele>
        <time>2026-08-27T20:38:16.951Z</time>
      </trkpt>
      <trkpt lat="50.945889" lon="5.985637">
        <ele>79.022977</ele>
        <time>2026-08-27T20:38:31.550Z</time>
      </trkpt>
      <trkpt lat="50.945856" lon="5.985540">
        <ele>79.031119</ele>
        <time>2026-08-27T20:38:38.541Z</time>
      </trkpt>
      <trkpt lat="50.945836" lon="5.985430">
        <ele>79.039575</ele>
        <time>2026-08-27T20:38:45.763Z</time>
      </trkpt>
      <trkpt lat="50.945848" lon="5.984846">
        <ele>79.082733</ele>
        <time>2026-08-27T20:39:22.715Z</time>
      </trkpt>
      <trkpt lat="50.945764" lon="5.984558">
        <ele>79.106174</ele>
        <time>2026-08-27T20:39:42.793Z</time>
      </trkpt>
      <trkpt lat="50.946142" lon="5.984684">
        <ele>79.151453</ele>
        <time>2026-08-27T20:40:21.607Z</time>
      </trkpt>
      <trkpt lat="50.946151" lon="5.984777">
        <ele>79.158403</ele>
        <time>2026-08-27T20:40:27.521Z</time>
      </trkpt>
      <trkpt lat="50.946205" lon="5.984862">
        <ele>79.167318</ele>
        <time>2026-08-27T20:40:35.168Z</time>
      </trkpt>
      <trkpt lat="50.946270" lon="5.984910">
        <ele>79.175723</ele>
        <time>2026-08-27T20:40:42.370Z</time>
      </trkpt>
      <trkpt lat="50.946205" lon="5.984862">
        <ele>79.184127</ele>
        <time>2026-08-27T20:40:49.565Z</time>
      </trkpt>
      <trkpt lat="50.946151" lon="5.984777">
        <ele>79.193042</ele>
        <time>2026-08-27T20:40:57.215Z</time>
      </trkpt>
      <trkpt lat="50.946142" lon="5.984684">
        <ele>79.199992</ele>
        <time>2026-08-27T20:41:03.117Z</time>
      </trkpt>
      <trkpt lat="50.945764" lon="5.984558">
        <ele>78.882796</ele>
        <time>2026-08-27T20:41:42.015Z</time>
      </trkpt>
      <trkpt lat="50.945848" lon="5.984846">
        <ele>78.677940</ele>
        <time>2026-08-27T20:42:02.308Z</time>
      </trkpt>
      <trkpt lat="50.945836" lon="5.985430">
        <ele>78.300768</ele>
        <time>2026-08-27T20:42:39.554Z</time>
      </trkpt>
      <trkpt lat="50.945856" lon="5.985540">
        <ele>78.226866</ele>
        <time>2026-08-27T20:42:46.876Z</time>
      </trkpt>
      <trkpt lat="50.945889" lon="5.985637">
        <ele>78.155708</ele>
        <time>2026-08-27T20:42:53.970Z</time>
      </trkpt>
      <trkpt lat="50.946004" lon="5.985775">
        <ele>78.008004</ele>
        <time>2026-08-27T20:43:08.730Z</time>
      </trkpt>
      <trkpt lat="50.946088" lon="5.985804">
        <ele>77.919933</ele>
        <time>2026-08-27T20:43:17.556Z</time>
      </trkpt>
      <trkpt lat="50.946193" lon="5.985772">
        <ele>77.810394</ele>
        <time>2026-08-27T20:43:28.642Z</time>
      </trkpt>
      <trkpt lat="50.946280" lon="5.985697">
        <ele>77.708963</ele>
        <time>2026-08-27T20:43:39.004Z</time>
      </trkpt>
      <trkpt lat="50.946413" lon="5.985398">
        <ele>77.472707</ele>
        <time>2026-08-27T20:44:03.028Z</time>
      </trkpt>
      <trkpt lat="50.946612" lon="5.985464">
        <ele>77.192624</ele>
        <time>2026-08-27T20:44:24.241Z</time>
      </trkpt>
      <trkpt lat="50.947259" lon="5.985777">
        <ele>76.006521</ele>
        <time>2026-08-27T20:45:34.920Z</time>
      </trkpt>
      <trkpt lat="50.949020" lon="5.986397">
        <ele>72.991656</ele>
        <time>2026-08-27T20:48:41.275Z</time>
      </trkpt>
      <trkpt lat="50.949818" lon="5.986760">
        <ele>71.693746</ele>
        <time>2026-08-27T20:50:06.798Z</time>
      </trkpt>
      <trkpt lat="50.950018" lon="5.986797">
        <ele>71.376769</ele>
        <time>2026-08-27T20:50:27.653Z</time>
      </trkpt>
      <trkpt lat="50.950363" lon="5.986770">
        <ele>70.778761</ele>
        <time>2026-08-27T20:51:03.531Z</time>
      </trkpt>
      <trkpt lat="50.950863" lon="5.986724">
        <ele>69.911683</ele>
        <time>2026-08-27T20:51:55.650Z</time>
      </trkpt>
      <trkpt lat="50.951045" lon="5.986661">
        <ele>69.589190</ele>
        <time>2026-08-27T20:52:15.084Z</time>
      </trkpt>
      <trkpt lat="50.951446" lon="5.986445">
        <ele>68.856076</ele>
        <time>2026-08-27T20:52:59.198Z</time>
      </trkpt>
      <trkpt lat="50.952011" lon="5.986067">
        <ele>68.360395</ele>
        <time>2026-08-27T20:54:02.466Z</time>
      </trkpt>
      <trkpt lat="50.952656" lon="5.985624">
        <ele>68.547078</ele>
        <time>2026-08-27T20:55:13.421Z</time>
      </trkpt>
      <trkpt lat="50.952694" lon="5.985921">
        <ele>68.597792</ele>
        <time>2026-08-27T20:55:32.880Z</time>
      </trkpt>
      <trkpt lat="50.952711" lon="5.985991">
        <ele>68.610346</ele>
        <time>2026-08-27T20:55:37.814Z</time>
      </trkpt>
      <trkpt lat="50.952752" lon="5.986084">
        <ele>68.629341</ele>
        <time>2026-08-27T20:55:45.231Z</time>
      </trkpt>
      <trkpt lat="50.952804" lon="5.986311">
        <ele>68.669760</ele>
        <time>2026-08-27T20:56:01.119Z</time>
      </trkpt>
      <trkpt lat="50.952888" lon="5.986681">
        <ele>68.735573</ele>
        <time>2026-08-27T20:56:27.483Z</time>
      </trkpt>
      <trkpt lat="50.952896" lon="5.986719">
        <ele>68.742278</ele>
        <time>2026-08-27T20:56:30.218Z</time>
      </trkpt>
      <trkpt lat="50.952868" lon="5.986741">
        <ele>68.750577</ele>
        <time>2026-08-27T20:56:33.593Z</time>
      </trkpt>
      <trkpt lat="50.952485" lon="5.987109">
        <ele>69.645114</ele>
        <time>2026-08-27T20:57:22.552Z</time>
      </trkpt>
      <trkpt lat="50.952434" lon="5.987213">
        <ele>69.827649</ele>
        <time>2026-08-27T20:57:31.757Z</time>
      </trkpt>
      <trkpt lat="50.952386" lon="5.987425">
        <ele>70.139654</ele>
        <time>2026-08-27T20:57:47.479Z</time>
      </trkpt>
      <trkpt lat="50.952270" lon="5.987639">
        <ele>70.530658</ele>
        <time>2026-08-27T20:58:06.809Z</time>
      </trkpt>
      <trkpt lat="50.952252" lon="5.987770">
        <ele>70.716358</ele>
        <time>2026-08-27T20:58:15.976Z</time>
      </trkpt>
      <trkpt lat="50.952274" lon="5.988156">
        <ele>71.253148</ele>
        <time>2026-08-27T20:58:42.289Z</time>
      </trkpt>
      <trkpt lat="50.952266" lon="5.988476">
        <ele>71.696694</ele>
        <time>2026-08-27T20:59:03.829Z</time>
      </trkpt>
      <trkpt lat="50.952207" lon="5.988731">
        <ele>72.072933</ele>
        <time>2026-08-27T20:59:22.163Z</time>
      </trkpt>
      <trkpt lat="50.952199" lon="5.988764">
        <ele>72.121905</ele>
        <time>2026-08-27T20:59:24.553Z</time>
      </trkpt>
      <trkpt lat="50.952050" lon="5.988814">
        <ele>72.456723</ele>
        <time>2026-08-27T20:59:40.780Z</time>
      </trkpt>
      <trkpt lat="50.951738" lon="5.988834">
        <ele>72.991391</ele>
        <time>2026-08-27T21:00:14.346Z</time>
      </trkpt>
      <trkpt lat="50.951479" lon="5.988582">
        <ele>73.421215</ele>
        <time>2026-08-27T21:00:46.940Z</time>
      </trkpt>
      <trkpt lat="50.951377" lon="5.988586">
        <ele>73.565580</ele>
        <time>2026-08-27T21:00:57.893Z</time>
      </trkpt>
      <trkpt lat="50.951099" lon="5.988842">
        <ele>74.020322</ele>
        <time>2026-08-27T21:01:31.845Z</time>
      </trkpt>
      <trkpt lat="50.951060" lon="5.988946">
        <ele>74.128205</ele>
        <time>2026-08-27T21:01:39.756Z</time>
      </trkpt>
      <trkpt lat="50.951002" lon="5.989283">
        <ele>74.439605</ele>
        <time>2026-08-27T21:02:02.478Z</time>
      </trkpt>
      <trkpt lat="50.950883" lon="5.989517">
        <ele>74.707665</ele>
        <time>2026-08-27T21:02:22.511Z</time>
      </trkpt>
      <trkpt lat="50.950809" lon="5.989598">
        <ele>74.834849</ele>
        <time>2026-08-27T21:02:31.902Z</time>
      </trkpt>
      <trkpt lat="50.950688" lon="5.989632">
        <ele>75.008714</ele>
        <time>2026-08-27T21:02:44.702Z</time>
      </trkpt>
      <trkpt lat="50.950552" lon="5.989596">
        <ele>75.203799</ele>
        <time>2026-08-27T21:02:59.027Z</time>
      </trkpt>
      <trkpt lat="50.950476" lon="5.989526">
        <ele>75.245069</ele>
        <time>2026-08-27T21:03:08.138Z</time>
      </trkpt>
      <trkpt lat="50.950285" lon="5.989251">
        <ele>75.150528</ele>
        <time>2026-08-27T21:03:34.338Z</time>
      </trkpt>
      <trkpt lat="50.950202" lon="5.989201">
        <ele>75.117981</ele>
        <time>2026-08-27T21:03:43.365Z</time>
      </trkpt>
      <trkpt lat="50.950130" lon="5.989245">
        <ele>75.089695</ele>
        <time>2026-08-27T21:03:51.093Z</time>
      </trkpt>
      <trkpt lat="50.950089" lon="5.989331">
        <ele>75.064785</ele>
        <time>2026-08-27T21:03:57.978Z</time>
      </trkpt>
      <trkpt lat="50.950002" lon="5.989513">
        <ele>75.012017</ele>
        <time>2026-08-27T21:04:12.464Z</time>
      </trkpt>
      <trkpt lat="50.949781" lon="5.989667">
        <ele>74.923529</ele>
        <time>2026-08-27T21:04:37.029Z</time>
      </trkpt>
      <trkpt lat="50.949530" lon="5.989897">
        <ele>74.817273</ele>
        <time>2026-08-27T21:05:06.559Z</time>
      </trkpt>
      <trkpt lat="50.948839" lon="5.990955">
        <ele>74.498137</ele>
        <time>2026-08-27T21:06:44.925Z</time>
      </trkpt>
      <trkpt lat="50.948380" lon="5.990162">
        <ele>74.308857</ele>
        <time>2026-08-27T21:07:53.003Z</time>
      </trkpt>
      <trkpt lat="50.948221" lon="5.989922">
        <ele>74.247641</ele>
        <time>2026-08-27T21:08:15.127Z</time>
      </trkpt>
      <trkpt lat="50.948149" lon="5.989855">
        <ele>74.224356</ele>
        <time>2026-08-27T21:08:23.532Z</time>
      </trkpt>
      <trkpt lat="50.948138" lon="5.989802">
        <ele>74.214548</ele>
        <time>2026-08-27T21:08:27.064Z</time>
      </trkpt>
      <trkpt lat="50.948091" lon="5.989627">
        <ele>74.181110</ele>
        <time>2026-08-27T21:08:39.078Z</time>
      </trkpt>
      <trkpt lat="50.948078" lon="5.989598">
        <ele>74.174854</ele>
        <time>2026-08-27T21:08:41.400Z</time>
      </trkpt>
      <trkpt lat="50.947934" lon="5.989145">
        <ele>74.082526</ele>
        <time>2026-08-27T21:09:13.479Z</time>
      </trkpt>
      <trkpt lat="50.947667" lon="5.988975">
        <ele>73.985738</ele>
        <time>2026-08-27T21:09:42.347Z</time>
      </trkpt>
      <trkpt lat="50.947618" lon="5.989008">
        <ele>73.967830</ele>
        <time>2026-08-27T21:09:47.693Z</time>
      </trkpt>
      <trkpt lat="50.947539" lon="5.988997">
        <ele>73.941149</ele>
        <time>2026-08-27T21:09:55.750Z</time>
      </trkpt>
      <trkpt lat="50.947228" lon="5.988894">
        <ele>73.834262</ele>
        <time>2026-08-27T21:10:27.630Z</time>
      </trkpt>
      <trkpt lat="50.947149" lon="5.988896">
        <ele>73.807680</ele>
        <time>2026-08-27T21:10:35.604Z</time>
      </trkpt>
      <trkpt lat="50.946743" lon="5.989111">
        <ele>73.663683</ele>
        <time>2026-08-27T21:11:18.772Z</time>
      </trkpt>
      <trkpt lat="50.946615" lon="5.989053">
        <ele>73.618898</ele>
        <time>2026-08-27T21:11:32.378Z</time>
      </trkpt>
      <trkpt lat="50.946172" lon="5.988854">
        <ele>73.520072</ele>
        <time>2026-08-27T21:12:19.367Z</time>
      </trkpt>
      <trkpt lat="50.945957" lon="5.988700">
        <ele>73.580677</ele>
        <time>2026-08-27T21:12:43.329Z</time>
      </trkpt>
      <trkpt lat="50.945733" lon="5.988581">
        <ele>73.641368</ele>
        <time>2026-08-27T21:13:07.114Z</time>
      </trkpt>
      <trkpt lat="50.945722" lon="5.988703">
        <ele>73.661319</ele>
        <time>2026-08-27T21:13:14.914Z</time>
      </trkpt>
      <trkpt lat="50.945695" lon="5.988810">
        <ele>73.679978</ele>
        <time>2026-08-27T21:13:22.245Z</time>
      </trkpt>
      <trkpt lat="50.945690" lon="5.988929">
        <ele>73.699285</ele>
        <time>2026-08-27T21:13:29.781Z</time>
      </trkpt>
      <trkpt lat="50.945534" lon="5.988923">
        <ele>73.739378</ele>
        <time>2026-08-27T21:13:45.386Z</time>
      </trkpt>
      <trkpt lat="50.945525" lon="5.988923">
        <ele>73.741690</ele>
        <time>2026-08-27T21:13:46.371Z</time>
      </trkpt>
      <trkpt lat="50.945271" lon="5.988859">
        <ele>73.807768</ele>
        <time>2026-08-27T21:14:12.486Z</time>
      </trkpt>
      <trkpt lat="50.944877" lon="5.988980">
        <ele>73.910877</ele>
        <time>2026-08-27T21:14:53.783Z</time>
      </trkpt>
      <trkpt lat="50.944744" lon="5.989062">
        <ele>73.947537</ele>
        <time>2026-08-27T21:15:08.530Z</time>
      </trkpt>
      <trkpt lat="50.944444" lon="5.989166">
        <ele>74.831477</ele>
        <time>2026-08-27T21:15:40.967Z</time>
      </trkpt>
      <trkpt lat="50.944155" lon="5.989356">
        <ele>75.856255</ele>
        <time>2026-08-27T21:16:14.539Z</time>
      </trkpt>
      <trkpt lat="50.943558" lon="5.989660">
        <ele>77.910227</ele>
        <time>2026-08-27T21:17:23.650Z</time>
      </trkpt>
      <trkpt lat="50.943528" lon="5.989676">
        <ele>78.013908</ele>
        <time>2026-08-27T21:17:27.396Z</time>
      </trkpt>
      <trkpt lat="50.943371" lon="5.989561">
        <ele>78.580376</ele>
        <time>2026-08-27T21:17:47.569Z</time>
      </trkpt>
      <trkpt lat="50.943237" lon="5.989575">
        <ele>79.020310</ele>
        <time>2026-08-27T21:18:03.508Z</time>
      </trkpt>
      <trkpt lat="50.943198" lon="5.989548">
        <ele>79.159701</ele>
        <time>2026-08-27T21:18:08.539Z</time>
      </trkpt>
      <trkpt lat="50.943092" lon="5.989314">
        <ele>79.754590</ele>
        <time>2026-08-27T21:18:30.155Z</time>
      </trkpt>
      <trkpt lat="50.942954" lon="5.989157">
        <ele>80.337904</ele>
        <time>2026-08-27T21:18:50.428Z</time>
      </trkpt>
      <trkpt lat="50.942711" lon="5.989065">
        <ele>81.204410</ele>
        <time>2026-08-27T21:19:20.565Z</time>
      </trkpt>
      <trkpt lat="50.942467" lon="5.988872">
        <ele>82.150023</ele>
        <time>2026-08-27T21:19:53.165Z</time>
      </trkpt>
      <trkpt lat="50.942443" lon="5.988826">
        <ele>82.280548</ele>
        <time>2026-08-27T21:19:57.675Z</time>
      </trkpt>
      <trkpt lat="50.942418" lon="5.988746">
        <ele>82.475712</ele>
        <time>2026-08-27T21:20:04.252Z</time>
      </trkpt>
      <trkpt lat="50.942340" lon="5.988647">
        <ele>82.822137</ele>
        <time>2026-08-27T21:20:16.015Z</time>
      </trkpt>
      <trkpt lat="50.942150" lon="5.988590">
        <ele>83.492830</ele>
        <time>2026-08-27T21:20:38.359Z</time>
      </trkpt>
      <trkpt lat="50.942039" lon="5.988616">
        <ele>83.882009</ele>
        <time>2026-08-27T21:20:51.211Z</time>
      </trkpt>
      <trkpt lat="50.941772" lon="5.988779">
        <ele>84.874265</ele>
        <time>2026-08-27T21:21:22.961Z</time>
      </trkpt>
      <trkpt lat="50.941588" lon="5.988736">
        <ele>85.519358</ele>
        <time>2026-08-27T21:21:42.482Z</time>
      </trkpt>
      <trkpt lat="50.941447" lon="5.988629">
        <ele>86.061458</ele>
        <time>2026-08-27T21:21:58.202Z</time>
      </trkpt>
      <trkpt lat="50.941335" lon="5.988498">
        <ele>85.719043</ele>
        <time>2026-08-27T21:22:12.401Z</time>
      </trkpt>
      <trkpt lat="50.941103" lon="5.987937">
        <ele>84.527023</ele>
        <time>2026-08-27T21:22:56.825Z</time>
      </trkpt>
      <trkpt lat="50.940928" lon="5.987665">
        <ele>83.836469</ele>
        <time>2026-08-27T21:23:23.128Z</time>
      </trkpt>
      <trkpt lat="50.940794" lon="5.987556">
        <ele>83.411969</ele>
        <time>2026-08-27T21:23:39.375Z</time>
      </trkpt>
      <trkpt lat="50.940717" lon="5.987534">
        <ele>83.191403</ele>
        <time>2026-08-27T21:23:47.893Z</time>
      </trkpt>
      <trkpt lat="50.940555" lon="5.987574">
        <ele>82.729204</ele>
        <time>2026-08-27T21:24:05.762Z</time>
      </trkpt>
      <trkpt lat="50.940491" lon="5.987613">
        <ele>82.535934</ele>
        <time>2026-08-27T21:24:13.182Z</time>
      </trkpt>
      <trkpt lat="50.940424" lon="5.987730">
        <ele>82.255085</ele>
        <time>2026-08-27T21:24:24.042Z</time>
      </trkpt>
      <trkpt lat="50.940344" lon="5.987966">
        <ele>81.779033</ele>
        <time>2026-08-27T21:24:42.384Z</time>
      </trkpt>
      <trkpt lat="50.940190" lon="5.988207">
        <ele>81.169299</ele>
        <time>2026-08-27T21:25:05.761Z</time>
      </trkpt>
      <trkpt lat="50.940105" lon="5.988426">
        <ele>80.751927</ele>
        <time>2026-08-27T21:25:23.250Z</time>
      </trkpt>
      <trkpt lat="50.939963" lon="5.988583">
        <ele>80.327108</ele>
        <time>2026-08-27T21:25:41.860Z</time>
      </trkpt>
      <trkpt lat="50.939780" lon="5.989076">
        <ele>79.442070</ele>
        <time>2026-08-27T21:26:19.924Z</time>
      </trkpt>
      <trkpt lat="50.939381" lon="5.989461">
        <ele>78.295814</ele>
        <time>2026-08-27T21:27:08.796Z</time>
      </trkpt>
      <trkpt lat="50.939282" lon="5.989686">
        <ele>77.871337</ele>
        <time>2026-08-27T21:27:26.864Z</time>
      </trkpt>
      <trkpt lat="50.939102" lon="5.989882">
        <ele>77.335482</ele>
        <time>2026-08-27T21:27:49.720Z</time>
      </trkpt>
      <trkpt lat="50.938989" lon="5.990200">
        <ele>76.770777</ele>
        <time>2026-08-27T21:28:13.554Z</time>
      </trkpt>
      <trkpt lat="50.938857" lon="5.990563">
        <ele>76.507866</ele>
        <time>2026-08-27T21:28:40.851Z</time>
      </trkpt>
      <trkpt lat="50.938742" lon="5.990668">
        <ele>76.443293</ele>
        <time>2026-08-27T21:28:54.468Z</time>
      </trkpt>
      <trkpt lat="50.938655" lon="5.990661">
        <ele>76.400896</ele>
        <time>2026-08-27T21:29:03.439Z</time>
      </trkpt>
      <trkpt lat="50.938502" lon="5.991062">
        <ele>76.257125</ele>
        <time>2026-08-27T21:29:33.520Z</time>
      </trkpt>
      <trkpt lat="50.938328" lon="5.991707">
        <ele>76.041942</ele>
        <time>2026-08-27T21:30:18.273Z</time>
      </trkpt>
      <trkpt lat="50.938232" lon="5.992296">
        <ele>75.855354</ele>
        <time>2026-08-27T21:30:56.660Z</time>
      </trkpt>
      <trkpt lat="50.938155" lon="5.993095">
        <ele>76.075490</ele>
        <time>2026-08-27T21:31:48.963Z</time>
      </trkpt>
      <trkpt lat="50.938134" lon="5.993347">
        <ele>76.300788</ele>
        <time>2026-08-27T21:32:05.632Z</time>
      </trkpt>
      <trkpt lat="50.938052" lon="5.994357">
        <ele>77.203374</ele>
        <time>2026-08-27T21:33:13.229Z</time>
      </trkpt>
      <trkpt lat="50.937998" lon="5.995387">
        <ele>78.119443</ele>
        <time>2026-08-27T21:34:22.713Z</time>
      </trkpt>
      <trkpt lat="50.937894" lon="5.996367">
        <ele>79.232359</ele>
        <time>2026-08-27T21:35:29.283Z</time>
      </trkpt>
      <trkpt lat="50.937761" lon="5.996977">
        <ele>79.983244</ele>
        <time>2026-08-27T21:36:12.536Z</time>
      </trkpt>
      <trkpt lat="50.937598" lon="5.997494">
        <ele>80.655744</ele>
        <time>2026-08-27T21:36:51.583Z</time>
      </trkpt>
      <trkpt lat="50.937582" lon="5.997631">
        <ele>80.817830</ele>
        <time>2026-08-27T21:37:01.009Z</time>
      </trkpt>
      <trkpt lat="50.937673" lon="5.997977">
        <ele>81.253982</ele>
        <time>2026-08-27T21:37:26.189Z</time>
      </trkpt>
      <trkpt lat="50.937678" lon="5.998285">
        <ele>81.610629</ele>
        <time>2026-08-27T21:37:46.957Z</time>
      </trkpt>
      <trkpt lat="50.937646" lon="5.998629">
        <ele>81.994392</ele>
        <time>2026-08-27T21:38:10.388Z</time>
      </trkpt>
      <trkpt lat="50.937638" lon="5.998726">
        <ele>82.102358</ele>
        <time>2026-08-27T21:38:17.039Z</time>
      </trkpt>
      <trkpt lat="50.937616" lon="5.998932">
        <ele>82.332948</ele>
        <time>2026-08-27T21:38:31.139Z</time>
      </trkpt>
      <trkpt lat="50.937562" lon="5.999055">
        <ele>82.498390</ele>
        <time>2026-08-27T21:38:41.314Z</time>
      </trkpt>
      <trkpt lat="50.937536" lon="5.999308">
        <ele>82.781298</ele>
        <time>2026-08-27T21:38:58.703Z</time>
      </trkpt>
      <trkpt lat="50.937451" lon="6.000191">
        <ele>83.767112</ele>
        <time>2026-08-27T21:39:58.871Z</time>
      </trkpt>
      <trkpt lat="50.937447" lon="6.000669">
        <ele>84.294697</ele>
        <time>2026-08-27T21:40:30.696Z</time>
      </trkpt>
      <trkpt lat="50.937270" lon="6.001584">
        <ele>85.268075</ele>
        <time>2026-08-27T21:41:33.468Z</time>
      </trkpt>
      <trkpt lat="50.936950" lon="6.002938">
        <ele>86.651552</ele>
        <time>2026-08-27T21:43:08.655Z</time>
      </trkpt>
      <trkpt lat="50.936147" lon="6.006386">
        <ele>91.093557</ele>
        <time>2026-08-27T21:47:17.919Z</time>
      </trkpt>
      <trkpt lat="50.935338" lon="6.009907">
        <ele>94.157044</ele>
        <time>2026-08-27T21:51:28.130Z</time>
      </trkpt>
      <trkpt lat="50.935358" lon="6.009916">
        <ele>94.157044</ele>
        <time>2026-08-27T21:51:30.302Z</time>
      </trkpt>
      <trkpt lat="50.935377" lon="6.009929">
        <ele>94.157044</ele>
        <time>2026-08-27T21:51:32.449Z</time>
      </trkpt>
      <trkpt lat="50.935474" lon="6.009984">
        <ele>94.157044</ele>
        <time>2026-08-27T21:51:42.852Z</time>
      </trkpt>
      <trkpt lat="50.935612" lon="6.009347">
        <ele>94.157044</ele>
        <time>2026-08-27T21:52:25.610Z</time>
      </trkpt>
      <trkpt lat="50.935680" lon="6.009033">
        <ele>94.157044</ele>
        <time>2026-08-27T21:52:46.609Z</time>
      </trkpt>
      <trkpt lat="50.935624" lon="6.009000">
        <ele>94.157044</ele>
        <time>2026-08-27T21:52:52.667Z</time>
      </trkpt>
      <trkpt lat="50.935364" lon="6.008854">
        <ele>94.157044</ele>
        <time>2026-08-27T21:53:20.510Z</time>
      </trkpt>
    </trkseg>
  </trk>
</gpx>